Time;durP1;ratioP1;P1;durP2;ratioP2;P2;SDS_P1;SDS_P2;PMS_P1;PMS_P2;Temp;Humidity;BMP_temperature;BMP_pressure;BME280_temperature;BME280_humidity;BME280_pressure;Samples;Min_cycle;Max_cycle;Signal;HPM_P1;HPM_P2
2023/05/28 00:01:08;;;;;;;6.53;4.50;;;22.30;61.80;;;;;;5069410;28;20194;-43
2023/05/28 00:03:41;;;;;;;5.10;4.03;;;22.40;61.90;;;;;;5049250;28;20247;-44
2023/05/28 00:06:12;;;;;;;6.07;4.73;;;22.30;61.70;;;;;;5066422;28;20213;-44
2023/05/28 00:08:57;;;;;;;5.60;4.50;;;22.30;61.70;;;;;;5071345;28;20186;-44
2023/05/28 00:11:27;;;;;;;6.13;4.07;;;22.30;61.70;;;;;;5070968;28;20208;-45
2023/05/28 00:13:58;;;;;;;6.03;4.80;;;22.30;61.60;;;;;;5051791;28;20242;-44
2023/05/28 00:16:29;;;;;;;5.30;4.40;;;22.30;61.50;;;;;;5062061;28;20605;-44
2023/05/28 00:19:06;;;;;;;4.83;4.03;;;22.30;61.50;;;;;;5052584;28;20229;-44
2023/05/28 00:21:43;;;;;;;5.70;4.20;;;22.30;61.40;;;;;;5045331;28;20194;-44
2023/05/28 00:24:15;;;;;;;4.60;4.20;;;22.30;61.40;;;;;;5067991;28;20190;-43
2023/05/28 00:26:45;;;;;;;6.17;4.23;;;22.30;61.50;;;;;;5052853;28;20626;-44
2023/05/28 00:29:16;;;;;;;6.63;4.10;;;22.30;61.60;;;;;;5062774;28;20618;-44
2023/05/28 00:31:44;;;;;;;4.73;3.70;;;22.30;61.20;;;;;;5050558;28;20213;-44
2023/05/28 00:34:15;;;;;;;6.83;4.17;;;22.30;61.40;;;;;;5055206;28;20198;-43
2023/05/28 00:36:44;;;;;;;5.60;3.90;;;22.30;61.20;;;;;;5055347;28;20620;-43
2023/05/28 00:39:14;;;;;;;5.60;4.10;;;22.30;61.20;;;;;;5058289;28;20218;-43
2023/05/28 00:41:47;;;;;;;5.20;3.90;;;22.20;61.20;;;;;;5067648;28;20520;-44
2023/05/28 00:44:19;;;;;;;6.37;3.97;;;22.20;61.20;;;;;;5076047;28;20190;-43
2023/05/28 00:46:50;;;;;;;5.70;4.10;;;22.20;61.20;;;;;;5055123;28;20200;-43
2023/05/28 00:49:20;;;;;;;4.07;3.67;;;22.20;61.30;;;;;;5063438;28;20344;-44
2023/05/28 00:51:48;;;;;;;5.53;3.97;;;22.20;61.10;;;;;;5032836;28;20198;-44
2023/05/28 00:54:18;;;;;;;5.63;4.07;;;22.20;61.00;;;;;;5046484;28;20481;-44
2023/05/28 00:56:48;;;;;;;4.93;3.70;;;22.20;60.80;;;;;;5042438;28;20217;-43
2023/05/28 00:59:25;;;;;;;5.10;3.80;;;22.10;60.80;;;;;;5064784;28;20224;-43
2023/05/28 01:01:54;;;;;;;5.07;3.70;;;22.20;60.80;;;;;;5069437;28;20192;-43
2023/05/28 01:04:28;;;;;;;6.10;3.63;;;22.20;60.60;;;;;;5064696;28;20787;-43
2023/05/28 01:07:10;;;;;;;4.30;3.37;;;22.10;60.60;;;;;;5048812;28;20212;-44
2023/05/28 01:09:42;;;;;;;4.63;3.70;;;22.10;60.60;;;;;;5078005;28;20208;-44
2023/05/28 01:12:14;;;;;;;6.53;4.03;;;22.10;60.50;;;;;;5058091;28;20213;-43
2023/05/28 01:14:47;;;;;;;4.97;3.80;;;22.10;60.40;;;;;;5068246;28;20198;-43
2023/05/28 01:17:17;;;;;;;5.60;3.63;;;22.10;60.20;;;;;;5067004;28;20634;-44
2023/05/28 01:19:46;;;;;;;6.13;3.80;;;22.10;60.20;;;;;;5051537;28;20614;-43
2023/05/28 01:22:25;;;;;;;5.20;3.57;;;22.10;60.10;;;;;;5069863;28;20186;-43
2023/05/28 01:25:09;;;;;;;6.70;3.70;;;22.10;60.10;;;;;;5069640;28;20212;-44
2023/05/28 01:27:44;;;;;;;5.53;3.83;;;22.10;60.10;;;;;;5069489;28;20564;-43
2023/05/28 01:30:16;;;;;;;4.20;3.60;;;22.10;60.00;;;;;;5063909;28;20573;-44
2023/05/28 01:32:44;;;;;;;4.83;3.60;;;22.10;59.80;;;;;;5051866;28;20224;-43
2023/05/28 01:35:14;;;;;;;5.43;3.57;;;22.10;59.80;;;;;;5068621;28;20290;-43
2023/05/28 01:37:48;;;;;;;5.70;3.17;;;22.00;59.70;;;;;;5068386;28;20533;-43
2023/05/28 01:40:22;;;;;;;4.60;3.60;;;22.00;59.70;;;;;;5038967;28;20262;-44
2023/05/28 01:42:51;;;;;;;5.03;3.77;;;22.00;59.50;;;;;;5041807;28;20694;-44
2023/05/28 01:45:24;;;;;;;4.00;3.53;;;22.00;59.40;;;;;;5069425;28;20726;-43
2023/05/28 01:47:54;;;;;;;4.77;3.37;;;22.00;59.40;;;;;;5060100;28;20197;-44
2023/05/28 01:50:28;;;;;;;4.03;3.20;;;22.00;59.20;;;;;;5046687;28;20605;-43
2023/05/28 01:53:00;;;;;;;4.60;3.67;;;22.00;59.20;;;;;;5031038;28;20331;-44
2023/05/28 01:55:32;;;;;;;4.83;3.50;;;22.00;59.20;;;;;;5053194;28;20283;-44
2023/05/28 01:58:05;;;;;;;5.87;3.60;;;22.00;59.10;;;;;;5054943;28;20678;-45
2023/05/28 02:00:42;;;;;;;3.23;2.93;;;22.00;59.10;;;;;;5064530;28;20627;-43
2023/05/28 02:03:11;;;;;;;4.60;3.27;;;21.90;58.90;;;;;;5059133;28;20202;-43
2023/05/28 02:05:41;;;;;;;3.97;3.33;;;21.90;58.80;;;;;;5048166;28;20264;-44
2023/05/28 02:08:12;;;;;;;3.53;3.23;;;21.90;58.80;;;;;;5058826;28;20201;-43
2023/05/28 02:10:44;;;;;;;3.90;3.10;;;21.90;58.70;;;;;;5068435;28;20607;-43
2023/05/28 02:13:16;;;;;;;5.17;3.70;;;21.90;58.70;;;;;;5058453;28;20218;-44
2023/05/28 02:15:47;;;;;;;4.30;3.27;;;21.90;58.60;;;;;;5052559;28;20563;-44
2023/05/28 02:18:14;;;;;;;4.70;3.57;;;21.90;59.20;;;;;;5059495;28;20839;-45
2023/05/28 02:20:45;;;;;;;3.57;3.27;;;21.90;58.50;;;;;;5058115;28;20612;-44
2023/05/28 02:23:15;;;;;;;4.47;3.20;;;22.00;58.40;;;;;;5053521;28;20190;-44
2023/05/28 02:25:46;;;;;;;3.53;2.93;;;21.90;58.30;;;;;;5062994;28;20198;-44
2023/05/28 02:28:14;;;;;;;4.97;3.30;;;21.90;58.30;;;;;;5066287;28;20201;-43
2023/05/28 02:30:46;;;;;;;3.50;3.20;;;21.90;58.30;;;;;;5057900;28;20213;-43
2023/05/28 02:33:17;;;;;;;4.03;3.07;;;21.90;58.20;;;;;;5067219;28;20222;-43
2023/05/28 02:35:49;;;;;;;4.67;3.50;;;21.80;58.10;;;;;;5060868;28;20198;-43
2023/05/28 02:38:19;;;;;;;4.70;3.20;;;21.80;58.10;;;;;;5058735;28;20321;-43
2023/05/28 02:40:50;;;;;;;3.90;2.83;;;21.90;58.10;;;;;;5048844;28;20206;-43
2023/05/28 02:43:34;;;;;;;3.80;2.90;;;21.80;58.00;;;;;;5037596;28;20286;-43
2023/05/28 02:46:04;;;;;;;4.27;3.10;;;21.80;58.00;;;;;;5041051;28;20663;-44
2023/05/28 02:48:33;;;;;;;3.60;2.97;;;21.80;57.90;;;;;;5046784;28;20623;-43
2023/05/28 02:51:04;;;;;;;3.73;2.87;;;21.80;57.90;;;;;;5045256;28;20620;-43
2023/05/28 02:53:34;;;;;;;4.37;3.20;;;21.80;57.90;;;;;;5043525;28;20718;-44
2023/05/28 02:56:06;;;;;;;3.80;3.20;;;21.70;57.80;;;;;;5021544;28;20195;-44
2023/05/28 02:58:33;;;;;;;4.40;3.17;;;21.80;57.80;;;;;;5044252;28;20713;-44
2023/05/28 03:01:09;;;;;;;3.87;2.90;;;21.70;57.80;;;;;;5030231;28;20190;-43
2023/05/28 03:03:41;;;;;;;3.77;2.70;;;21.70;57.70;;;;;;5033799;28;20252;-43
2023/05/28 03:06:13;;;;;;;3.83;2.80;;;21.70;57.70;;;;;;5041921;28;20214;-44
2023/05/28 03:08:42;;;;;;;3.33;3.00;;;21.70;57.70;;;;;;5035560;28;20630;-44
2023/05/28 03:11:12;;;;;;;5.63;2.83;;;21.70;57.70;;;;;;5033076;28;20186;-43
2023/05/28 03:13:45;;;;;;;4.87;3.03;;;21.70;57.70;;;;;;5042492;28;20571;-43
2023/05/28 03:16:16;;;;;;;5.03;3.00;;;21.70;57.60;;;;;;5023305;28;20191;-43
2023/05/28 03:18:49;;;;;;;4.03;2.73;;;21.60;57.50;;;;;;5030518;28;20197;-45
2023/05/28 03:21:22;;;;;;;4.43;3.30;;;21.70;57.60;;;;;;5039199;28;20341;-44
2023/05/28 03:23:53;;;;;;;3.17;2.53;;;21.60;57.50;;;;;;5056765;28;20510;-43
2023/05/28 03:26:23;;;;;;;3.03;2.50;;;21.70;57.50;;;;;;5047072;28;20205;-44
2023/05/28 03:28:54;;;;;;;3.47;2.80;;;21.60;57.50;;;;;;5037212;28;20211;-44
2023/05/28 03:31:33;;;;;;;4.23;3.03;;;21.60;57.40;;;;;;5049864;28;20195;-43
2023/05/28 03:34:05;;;;;;;3.90;2.90;;;21.60;57.40;;;;;;5043401;28;20277;-44
2023/05/28 03:36:35;;;;;;;4.63;2.73;;;21.60;57.40;;;;;;5047171;28;20191;-44
2023/05/28 03:39:13;;;;;;;3.43;2.67;;;21.60;57.30;;;;;;5066303;28;20225;-43
2023/05/28 03:41:41;;;;;;;3.40;2.67;;;21.60;57.30;;;;;;5062691;28;20205;-43
2023/05/28 03:44:13;;;;;;;3.83;2.80;;;21.60;57.30;;;;;;5048319;28;20190;-43
2023/05/28 03:46:43;;;;;;;4.30;2.63;;;21.60;57.30;;;;;;5060477;28;20619;-43
2023/05/28 03:49:13;;;;;;;2.83;2.53;;;21.60;57.20;;;;;;5054832;28;20223;-43
2023/05/28 03:51:43;;;;;;;3.10;2.80;;;21.50;57.20;;;;;;5070409;28;20190;-43
2023/05/28 03:54:14;;;;;;;3.50;2.63;;;21.60;57.20;;;;;;5064373;28;20222;-43
2023/05/28 03:56:44;;;;;;;3.00;2.40;;;21.50;57.10;;;;;;5070814;28;20209;-43
2023/05/28 03:59:15;;;;;;;3.97;2.80;;;21.50;57.10;;;;;;5071624;28;20190;-43
2023/05/28 04:01:45;;;;;;;3.73;2.80;;;21.50;57.10;;;;;;5071809;28;20205;-43
2023/05/28 04:04:16;;;;;;;4.23;2.70;;;21.50;57.10;;;;;;5066282;28;20199;-43
2023/05/28 04:06:45;;;;;;;3.57;2.93;;;21.50;57.50;;;;;;5046320;28;20697;-44
2023/05/28 04:09:21;;;;;;;3.20;2.60;;;21.50;57.00;;;;;;5059384;28;20231;-44
2023/05/28 04:11:51;;;;;;;4.40;2.83;;;21.50;57.00;;;;;;5070666;28;20198;-43
2023/05/28 04:14:23;;;;;;;3.73;2.67;;;21.50;57.00;;;;;;5059577;28;20683;-43
2023/05/28 04:16:53;;;;;;;4.23;3.03;;;21.50;56.90;;;;;;5068061;28;20589;-44
2023/05/28 04:19:37;;;;;;;3.70;2.73;;;21.50;56.90;;;;;;5070618;28;20675;-43
2023/05/28 04:22:08;;;;;;;3.97;2.90;;;21.50;56.90;;;;;;5060214;28;20580;-44
2023/05/28 04:24:37;;;;;;;4.00;2.63;;;21.40;56.90;;;;;;5058187;28;20195;-44
2023/05/28 04:27:09;;;;;;;4.37;2.70;;;21.50;56.90;;;;;;5051726;28;20183;-44
2023/05/28 04:29:38;;;;;;;3.77;2.73;;;21.50;56.90;;;;;;5061667;28;20213;-44
2023/05/28 04:32:09;;;;;;;3.20;2.73;;;21.40;56.80;;;;;;5049875;28;20190;-44
2023/05/28 04:34:40;;;;;;;3.77;3.07;;;21.40;57.50;;;;;;5040567;28;20225;-43
2023/05/28 04:37:12;;;;;;;3.20;2.83;;;21.40;56.80;;;;;;5028277;28;20260;-44
2023/05/28 04:39:42;;;;;;;3.47;2.60;;;21.40;56.80;;;;;;5068701;28;20186;-44
2023/05/28 04:42:16;;;;;;;3.70;2.87;;;21.40;56.70;;;;;;5054203;28;20202;-43
2023/05/28 04:44:47;;;;;;;2.67;2.47;;;21.40;56.70;;;;;;5055502;28;20204;-43
2023/05/28 04:47:21;;;;;;;3.33;2.80;;;21.40;56.70;;;;;;5063398;28;20209;-44
2023/05/28 04:49:52;;;;;;;3.23;2.80;;;21.40;56.70;;;;;;5050634;28;20183;-44
2023/05/28 04:52:22;;;;;;;3.47;2.80;;;21.40;56.70;;;;;;5051914;28;20217;-44
2023/05/28 04:54:53;;;;;;;4.60;3.07;;;21.40;56.70;;;;;;5062525;28;20296;-44
2023/05/28 04:57:25;;;;;;;3.50;2.63;;;21.40;56.70;;;;;;5062645;28;20194;-43
2023/05/28 04:59:56;;;;;;;4.50;2.93;;;21.40;56.60;;;;;;5063115;28;20190;-44
2023/05/28 05:02:26;;;;;;;3.20;2.67;;;21.40;56.60;;;;;;5071191;28;20195;-43
2023/05/28 05:04:56;;;;;;;4.07;2.60;;;21.40;56.60;;;;;;5065359;28;20217;-43
2023/05/28 05:07:28;;;;;;;4.87;2.90;;;21.40;56.60;;;;;;5051566;28;20623;-44
2023/05/28 05:09:58;;;;;;;3.63;2.80;;;21.40;56.60;;;;;;5063661;28;20534;-44
2023/05/28 05:12:31;;;;;;;3.20;2.40;;;21.40;56.60;;;;;;5053645;28;20206;-43
2023/05/28 05:15:00;;;;;;;2.60;2.40;;;21.30;56.50;;;;;;5070106;28;20209;-44
2023/05/28 05:17:34;;;;;;;4.50;2.83;;;21.40;56.50;;;;;;5067520;28;20582;-43
2023/05/28 05:20:06;;;;;;;3.30;2.57;;;21.30;56.50;;;;;;5052717;28;20193;-43
2023/05/28 05:22:38;;;;;;;4.77;2.90;;;21.40;56.50;;;;;;5070693;28;20571;-44
2023/05/28 05:25:21;;;;;;;3.33;2.90;;;21.30;56.40;;;;;;5069319;28;20293;-44
2023/05/28 05:27:51;;;;;;;3.20;2.70;;;21.30;56.40;;;;;;5053888;28;20474;-44
2023/05/28 05:30:24;;;;;;;3.50;2.73;;;21.40;56.40;;;;;;5046338;28;20238;-43
2023/05/28 05:32:54;;;;;;;2.97;2.60;;;21.30;56.40;;;;;;5070843;28;20211;-43
2023/05/28 05:35:24;;;;;;;4.03;2.50;;;21.40;56.40;;;;;;5067852;28;20267;-44
2023/05/28 05:37:54;;;;;;;3.30;2.63;;;21.30;56.40;;;;;;5063949;28;20234;-43
2023/05/28 05:40:21;;;;;;;2.67;2.30;;;21.30;57.00;;;;;;5056448;28;20209;-44
2023/05/28 05:42:51;;;;;;;5.13;3.17;;;21.30;56.30;;;;;;5065730;28;20733;-44
2023/05/28 05:45:24;;;;;;;4.57;3.03;;;21.30;56.30;;;;;;5070113;28;20225;-43
2023/05/28 05:47:55;;;;;;;3.13;2.57;;;21.40;56.40;;;;;;5067131;28;20668;-43
2023/05/28 05:50:28;;;;;;;3.43;2.30;;;21.30;56.40;;;;;;5058247;28;20200;-44
2023/05/28 05:53:01;;;;;;;3.27;2.97;;;21.30;56.30;;;;;;5055108;28;20525;-44
2023/05/28 05:55:33;;;;;;;3.30;2.57;;;21.40;56.30;;;;;;5068234;28;20213;-44
2023/05/28 05:58:08;;;;;;;4.53;2.60;;;21.30;56.20;;;;;;5068835;28;20623;-44
2023/05/28 06:00:38;;;;;;;3.50;2.70;;;21.30;56.20;;;;;;5064814;28;20702;-44
2023/05/28 06:03:12;;;;;;;4.30;3.20;;;21.30;56.10;;;;;;5069131;28;20507;-44
2023/05/28 06:05:44;;;;;;;4.57;3.40;;;21.30;56.20;;;;;;5064958;28;20289;-44
2023/05/28 06:08:16;;;;;;;4.37;2.90;;;21.30;56.30;;;;;;5063436;28;20489;-44
2023/05/28 06:10:47;;;;;;;7.57;3.40;;;21.30;56.40;;;;;;5066436;28;20186;-44
2023/05/28 06:13:16;;;;;;;4.47;3.40;;;21.30;56.40;;;;;;5067464;28;20672;-43
2023/05/28 06:15:45;;;;;;;4.23;2.77;;;21.30;56.40;;;;;;5069089;28;20201;-44
2023/05/28 06:18:21;;;;;;;5.50;3.33;;;21.30;56.40;;;;;;5063154;28;20233;-44
2023/05/28 06:20:52;;;;;;;4.80;3.03;;;21.40;56.50;;;;;;5061920;28;20531;-44
2023/05/28 06:23:25;;;;;;;4.87;2.93;;;21.30;56.50;;;;;;5069826;28;20570;-44
2023/05/28 06:25:54;;;;;;;4.17;2.70;;;21.30;56.40;;;;;;5059234;28;20271;-44
2023/05/28 06:28:23;;;;;;;2.87;2.67;;;21.30;56.40;;;;;;5055218;28;20269;-44
2023/05/28 06:30:57;;;;;;;3.63;2.70;;;21.30;56.40;;;;;;5063341;28;20201;-44
2023/05/28 06:33:28;;;;;;;5.60;3.23;;;21.30;56.40;;;;;;5063551;28;20193;-44
2023/05/28 06:35:57;;;;;;;18.87;5.03;;;21.40;56.60;;;;;;5068525;28;20524;-44
2023/05/28 06:38:25;;;;;;;16.90;5.83;;;21.40;58.70;;;;;;5067243;28;20593;-44
2023/05/28 06:40:56;;;;;;;15.60;5.97;;;21.50;59.40;;;;;;5066479;28;20661;-44
2023/05/28 06:43:28;;;;;;;24.50;7.17;;;21.50;59.90;;;;;;5054272;28;20187;-44
2023/05/28 06:46:12;;;;;;;22.43;7.67;;;21.50;60.40;;;;;;5065551;28;20200;-44
2023/05/28 06:48:44;;;;;;;24.33;8.27;;;21.50;61.00;;;;;;5066067;28;20579;-44
2023/05/28 06:51:17;;;;;;;20.73;8.37;;;21.50;61.70;;;;;;5062467;28;20228;-44
2023/05/28 06:53:49;;;;;;;25.37;7.70;;;21.50;62.30;;;;;;5076457;28;20236;-43
2023/05/28 06:56:22;;;;;;;27.53;7.97;;;21.60;62.60;;;;;;5073404;28;20259;-45
2023/05/28 06:58:53;;;;;;;26.57;8.80;;;21.60;63.00;;;;;;5073676;28;20212;-45
2023/05/28 07:01:24;;;;;;;24.67;8.03;;;21.70;63.50;;;;;;5074687;28;20190;-45
2023/05/28 07:03:53;;;;;;;31.17;8.83;;;21.70;63.70;;;;;;5073233;28;20202;-45
2023/05/28 07:06:22;;;;;;;28.30;8.27;;;21.80;63.50;;;;;;5070381;28;20218;-45
2023/05/28 07:08:52;;;;;;;22.90;6.93;;;21.70;62.50;;;;;;5067279;28;20856;-45
2023/05/28 07:11:23;;;;;;;23.80;7.00;;;21.70;62.00;;;;;;5055091;28;20198;-43
2023/05/28 07:13:52;;;;;;;30.17;7.60;;;21.70;61.50;;;;;;5061067;28;20230;-44
2023/05/28 07:16:20;;;;;;;17.03;6.67;;;21.70;61.10;;;;;;5067808;28;20608;-44
2023/05/28 07:18:52;;;;;;;16.97;6.17;;;21.70;60.70;;;;;;5069241;28;20705;-45
2023/05/28 07:21:23;;;;;;;19.87;6.20;;;21.70;60.40;;;;;;5059480;28;20198;-44
2023/05/28 07:24:00;;;;;;;18.73;6.47;;;21.70;60.20;;;;;;5067167;28;20213;-44
2023/05/28 07:26:30;;;;;;;15.27;5.83;;;21.70;59.90;;;;;;5054409;28;20267;-44
2023/05/28 07:29:01;;;;;;;15.57;6.07;;;21.70;59.80;;;;;;5060526;28;20564;-44
2023/05/28 07:31:31;;;;;;;11.67;5.30;;;21.70;59.50;;;;;;5066046;28;20240;-44
2023/05/28 07:34:05;;;;;;;10.87;5.10;;;21.70;59.20;;;;;;5055356;28;20222;-44
2023/05/28 07:36:34;;;;;;;14.40;5.50;;;21.70;58.90;;;;;;5055963;28;20194;-44
2023/05/28 07:39:06;;;;;;;12.63;5.07;;;21.70;58.80;;;;;;5065127;28;20249;-44
2023/05/28 07:41:42;;;;;;;16.87;6.00;;;21.70;58.60;;;;;;5061177;28;20296;-43
2023/05/28 07:44:09;;;;;;;11.60;5.43;;;21.70;58.60;;;;;;5064573;28;20213;-43
2023/05/28 07:46:53;;;;;;;10.17;4.83;;;21.70;58.50;;;;;;5053919;28;20696;-43
2023/05/28 07:49:36;;;;;;;13.20;4.53;;;21.70;58.40;;;;;;5072609;28;20252;-43
2023/05/28 07:52:09;;;;;;;8.93;4.57;;;21.70;58.40;;;;;;5060970;28;20206;-44
2023/05/28 07:54:39;;;;;;;9.07;4.20;;;21.70;58.20;;;;;;5066191;28;20512;-44
2023/05/28 07:57:10;;;;;;;13.93;4.67;;;21.70;58.00;;;;;;5064191;28;20216;-44
2023/05/28 07:59:40;;;;;;;12.57;4.23;;;21.70;57.90;;;;;;5052351;28;20616;-44
2023/05/28 08:02:10;;;;;;;7.63;4.57;;;21.70;57.70;;;;;;5065507;28;20255;-44
2023/05/28 08:04:41;;;;;;;13.37;4.83;;;21.80;57.70;;;;;;5063999;28;20201;-44
2023/05/28 08:07:13;;;;;;;10.57;4.90;;;21.80;57.60;;;;;;5063272;28;20206;-43
2023/05/28 08:09:47;;;;;;;8.50;4.63;;;21.80;57.50;;;;;;5060485;28;20186;-43
2023/05/28 08:12:29;;;;;;;8.83;4.33;;;21.80;57.50;;;;;;5056124;28;20198;-44
2023/05/28 08:14:57;;;;;;;6.87;4.20;;;21.80;57.60;;;;;;5055694;28;20226;-45
2023/05/28 08:17:32;;;;;;;7.37;4.40;;;21.80;57.50;;;;;;5058566;28;20701;-44
2023/05/28 08:20:06;;;;;;;8.80;3.80;;;21.80;57.40;;;;;;5060437;28;20745;-45
2023/05/28 08:22:36;;;;;;;10.53;3.77;;;21.80;57.50;;;;;;5064007;28;20194;-44
2023/05/28 08:25:10;;;;;;;6.97;4.20;;;21.80;57.40;;;;;;5070842;28;20194;-44
2023/05/28 08:27:42;;;;;;;5.27;3.37;;;21.80;57.40;;;;;;5069812;28;20213;-44
2023/05/28 08:30:25;;;;;;;6.77;3.60;;;21.80;57.30;;;;;;5061450;28;20658;-44
2023/05/28 08:32:57;;;;;;;9.00;4.17;;;21.80;57.30;;;;;;5064981;28;20192;-44
2023/05/28 08:35:27;;;;;;;9.47;3.90;;;21.90;57.30;;;;;;5065540;28;20198;-44
2023/05/28 08:37:58;;;;;;;7.90;4.07;;;21.90;57.20;;;;;;5065194;28;20551;-43
2023/05/28 08:40:33;;;;;;;6.97;4.27;;;21.90;57.20;;;;;;5068244;28;20186;-44
2023/05/28 08:43:10;;;;;;;6.53;4.23;;;21.90;57.00;;;;;;5073235;28;20196;-44
2023/05/28 08:45:42;;;;;;;7.80;4.03;;;21.90;57.00;;;;;;5071977;28;20217;-44
2023/05/28 08:48:12;;;;;;;8.20;3.93;;;21.90;57.00;;;;;;5072832;28;20198;-44
2023/05/28 08:50:45;;;;;;;5.97;4.20;;;21.90;57.00;;;;;;5067987;28;20201;-44
2023/05/28 08:53:18;;;;;;;7.97;3.90;;;21.90;57.00;;;;;;5054962;28;20672;-44
2023/05/28 08:55:51;;;;;;;6.07;3.73;;;21.90;56.90;;;;;;5073144;28;20263;-43
2023/05/28 08:58:20;;;;;;;8.20;4.43;;;22.00;57.00;;;;;;5071874;28;20272;-43
2023/05/28 09:00:52;;;;;;;5.27;3.93;;;21.90;57.00;;;;;;5073257;28;20247;-44
2023/05/28 09:03:23;;;;;;;6.07;4.00;;;22.00;57.00;;;;;;5063715;28;20202;-44
2023/05/28 09:05:55;;;;;;;6.17;3.70;;;22.00;57.00;;;;;;5066477;28;20213;-44
2023/05/28 09:08:25;;;;;;;5.50;3.53;;;21.90;57.00;;;;;;5060728;28;20539;-44
2023/05/28 09:10:58;;;;;;;7.40;3.93;;;22.00;57.00;;;;;;5067901;28;20197;-43
2023/05/28 09:13:29;;;;;;;5.43;3.60;;;21.90;56.90;;;;;;5064316;28;20208;-44
2023/05/28 09:15:59;;;;;;;4.40;3.57;;;22.00;56.90;;;;;;5063826;28;20225;-44
2023/05/28 09:18:31;;;;;;;5.40;3.70;;;22.00;56.90;;;;;;5056247;28;20205;-44
2023/05/28 09:21:10;;;;;;;6.03;3.53;;;22.00;56.70;;;;;;5062336;28;20228;-44
2023/05/28 09:23:53;;;;;;;6.47;4.17;;;22.00;56.70;;;;;;5063405;28;20200;-45
2023/05/28 09:26:31;;;;;;;6.00;3.70;;;22.00;56.70;;;;;;5064667;28;20194;-43
2023/05/28 09:29:12;;;;;;;4.67;3.30;;;22.10;56.80;;;;;;5052060;28;20217;-44
2023/05/28 09:32:02;;;;;;;5.07;3.47;;;22.10;56.80;;;;;;5066290;28;20292;-43
2023/05/28 09:34:42;;;;;;;8.03;3.83;;;22.10;56.70;;;;;;5060661;28;20217;-44
2023/05/28 09:37:19;;;;;;;5.63;3.37;;;22.10;56.50;;;;;;5063942;28;20198;-43
2023/05/28 09:40:01;;;;;;;5.27;3.47;;;22.10;56.30;;;;;;5072376;28;20197;-44
2023/05/28 09:42:39;;;;;;;5.70;3.60;;;22.10;56.40;;;;;;5064003;28;20201;-45
2023/05/28 09:45:10;;;;;;;4.70;3.77;;;22.10;56.60;;;;;;5068546;28;20244;-44
2023/05/28 09:47:45;;;;;;;3.80;3.23;;;22.10;57.10;;;;;;5067032;28;20186;-44
2023/05/28 09:50:18;;;;;;;5.03;3.67;;;22.10;56.40;;;;;;5068160;28;20476;-43
2023/05/28 09:52:47;;;;;;;5.67;3.70;;;22.20;56.40;;;;;;5069206;28;20209;-43
2023/05/28 09:55:18;;;;;;;7.53;3.40;;;22.20;56.90;;;;;;5069837;28;20698;-43
2023/05/28 09:58:10;;;;;;;5.00;3.50;;;22.20;56.20;;;;;;5057271;28;20599;-44
2023/05/28 10:00:52;;;;;;;7.80;3.80;;;22.30;56.90;;;;;;5060827;28;20728;-45
2023/05/28 10:03:42;;;;;;;4.57;3.30;;;22.30;56.20;;;;;;5068370;28;20235;-44
2023/05/28 10:06:26;;;;;;;5.60;3.57;;;22.30;56.60;;;;;;5065076;28;20213;-44
2023/05/28 10:09:04;;;;;;;9.43;3.70;;;22.30;56.80;;;;;;5059282;28;20827;-43
2023/05/28 10:11:49;;;;;;;7.30;4.10;;;22.40;57.20;;;;;;5052691;28;20596;-44
2023/05/28 10:14:20;;;;;;;6.10;3.03;;;22.30;57.30;;;;;;5057296;28;20212;-43
2023/05/28 10:16:51;;;;;;;6.77;3.57;;;22.30;57.70;;;;;;5064204;28;21410;-44
2023/05/28 10:19:24;;;;;;;6.10;3.50;;;22.40;57.80;;;;;;5052852;28;20584;-44
2023/05/28 10:21:57;;;;;;;4.80;3.57;;;22.40;57.60;;;;;;5068044;28;20194;-43
2023/05/28 10:24:27;;;;;;;5.20;3.80;;;22.40;57.70;;;;;;5077779;28;20255;-44
2023/05/28 10:26:55;;;;;;;5.03;3.00;;;22.40;58.20;;;;;;5068318;28;20213;-43
2023/05/28 10:29:25;;;;;;;5.20;3.27;;;22.40;58.10;;;;;;5066440;28;20708;-43
2023/05/28 10:32:22;;;;;;;4.40;3.33;;;22.40;58.20;;;;;;5054927;28;20202;-43
2023/05/28 10:35:00;;;;;;;5.20;3.30;;;22.40;58.00;;;;;;5056861;28;20197;-44
2023/05/28 10:37:30;;;;;;;4.57;3.00;;;22.40;58.50;;;;;;5061323;28;22659;-44
2023/05/28 10:40:01;;;;;;;4.30;3.30;;;22.50;58.00;;;;;;5076712;28;20871;-44
2023/05/28 10:42:29;;;;;;;4.87;3.03;;;22.50;58.10;;;;;;5079077;28;20709;-43
2023/05/28 10:45:13;;;;;;;5.00;3.20;;;22.50;58.60;;;;;;5059650;28;20200;-45
2023/05/28 10:47:51;;;;;;;4.67;3.47;;;22.50;58.80;;;;;;5060233;28;20643;-44
2023/05/28 10:50:23;;;;;;;5.70;3.50;;;22.50;58.90;;;;;;5064876;28;20193;-44
2023/05/28 10:53:10;;;;;;;4.57;2.80;;;22.50;58.70;;;;;;5066451;28;20655;-44
2023/05/28 10:55:53;;;;;;;4.53;2.90;;;22.60;58.90;;;;;;5062048;28;20209;-44
2023/05/28 10:58:36;;;;;;;3.20;2.90;;;22.60;58.90;;;;;;5063722;28;20220;-44
2023/05/28 11:01:24;;;;;;;5.10;3.10;;;22.50;59.20;;;;;;5056775;28;20204;-44
2023/05/28 11:03:54;;;;;;;4.67;3.40;;;22.60;59.00;;;;;;5072392;28;20231;-45
2023/05/28 11:06:29;;;;;;;4.33;2.97;;;22.60;59.50;;;;;;5053925;28;20218;-43
2023/05/28 11:09:00;;;;;;;5.50;3.37;;;22.60;59.70;;;;;;5065492;28;20557;-45
2023/05/28 11:11:31;;;;;;;5.27;3.10;;;22.70;59.60;;;;;;5060777;28;20202;-44
2023/05/28 11:14:02;;;;;;;4.37;2.60;;;22.60;59.60;;;;;;5079284;28;20194;-45
2023/05/28 11:16:34;;;;;;;3.50;2.80;;;22.70;59.80;;;;;;5053544;28;20229;-44
2023/05/28 11:19:08;;;;;;;3.57;2.77;;;22.70;59.70;;;;;;5065018;28;20198;-44
2023/05/28 11:21:52;;;;;;;5.80;3.30;;;22.70;59.90;;;;;;5065923;28;20217;-45
2023/05/28 11:24:23;;;;;;;4.57;3.00;;;22.70;60.00;;;;;;5044726;28;20198;-44
2023/05/28 11:26:55;;;;;;;4.87;3.33;;;22.80;60.30;;;;;;5059171;28;20194;-45
2023/05/28 11:29:26;;;;;;;4.60;3.03;;;22.80;60.40;;;;;;5062106;28;20279;-44
2023/05/28 11:32:00;;;;;;;5.07;2.90;;;22.80;60.10;;;;;;5059180;28;20198;-43
2023/05/28 11:34:29;;;;;;;3.43;3.13;;;22.80;59.90;;;;;;5057581;28;20199;-43
2023/05/28 11:37:01;;;;;;;4.13;2.70;;;22.80;60.40;;;;;;5065818;28;20659;-44
2023/05/28 11:39:31;;;;;;;5.20;2.70;;;22.80;60.00;;;;;;5059150;28;20238;-44
2023/05/28 11:42:13;;;;;;;5.50;3.27;;;22.90;60.40;;;;;;5064549;28;20289;-44
2023/05/28 11:44:49;;;;;;;4.93;2.83;;;22.90;60.60;;;;;;5066899;28;20200;-43
2023/05/28 11:47:16;;;;;;;5.27;3.20;;;22.90;60.60;;;;;;5085669;28;20204;-44
2023/05/28 11:49:48;;;;;;;5.13;3.07;;;22.90;60.60;;;;;;5065203;28;20218;-44
2023/05/28 11:52:26;;;;;;;5.03;3.50;;;22.90;61.00;;;;;;5048715;28;20247;-44
2023/05/28 11:55:04;;;;;;;6.73;2.90;;;22.90;60.80;;;;;;5066418;28;20206;-45
2023/05/28 11:57:34;;;;;;;4.83;3.17;;;22.90;60.50;;;;;;5078590;28;20202;-45
2023/05/28 12:00:15;;;;;;;4.93;2.93;;;23.00;60.70;;;;;;5072723;28;20212;-44
2023/05/28 12:02:52;;;;;;;6.43;3.00;;;23.00;60.70;;;;;;5066880;28;20255;-43
2023/05/28 12:05:23;;;;;;;3.07;2.70;;;23.00;60.50;;;;;;5069096;28;20209;-43
2023/05/28 12:07:54;;;;;;;3.70;3.20;;;23.10;60.70;;;;;;5066364;28;20198;-45
2023/05/28 12:10:32;;;;;;;3.67;2.73;;;23.00;60.60;;;;;;5085238;28;20202;-43
2023/05/28 12:13:11;;;;;;;4.13;2.87;;;23.10;61.00;;;;;;5066882;28;20194;-43
2023/05/28 12:15:50;;;;;;;4.20;3.00;;;23.10;61.60;;;;;;5075583;28;20525;-43
2023/05/28 12:18:25;;;;;;;6.47;3.40;;;23.10;61.10;;;;;;5067731;28;20255;-44
2023/05/28 12:21:00;;;;;;;4.87;3.00;;;23.10;61.10;;;;;;5072576;28;20539;-44
2023/05/28 12:23:36;;;;;;;3.93;2.90;;;23.10;61.00;;;;;;5071036;28;20205;-44
2023/05/28 12:26:11;;;;;;;5.33;3.20;;;23.20;60.80;;;;;;5071380;28;20198;-44
2023/05/28 12:28:43;;;;;;;4.00;2.63;;;23.20;60.90;;;;;;5060399;28;20322;-44
2023/05/28 12:31:14;;;;;;;3.60;2.80;;;23.20;61.30;;;;;;5061879;28;20227;-43
2023/05/28 12:33:46;;;;;;;4.47;3.03;;;23.20;60.90;;;;;;5066642;28;20251;-43
2023/05/28 12:36:16;;;;;;;5.30;2.93;;;23.20;60.80;;;;;;5059790;28;20233;-43
2023/05/28 12:39:01;;;;;;;3.27;2.67;;;23.20;60.30;;;;;;5072958;28;20218;-44
2023/05/28 12:41:40;;;;;;;4.07;2.93;;;23.30;61.20;;;;;;5087759;28;20205;-43
2023/05/28 12:44:12;;;;;;;5.07;3.30;;;23.30;60.90;;;;;;5072329;28;20209;-44
2023/05/28 12:46:43;;;;;;;3.13;2.83;;;23.30;60.50;;;;;;5079182;28;20253;-43
2023/05/28 12:49:16;;;;;;;5.23;2.93;;;23.30;60.30;;;;;;5080119;28;20293;-43
2023/05/28 12:51:48;;;;;;;4.50;3.00;;;23.30;60.30;;;;;;5077097;28;20194;-44
2023/05/28 12:54:22;;;;;;;4.57;2.87;;;23.40;60.10;;;;;;5064866;28;20225;-43
2023/05/28 12:56:55;;;;;;;4.03;3.13;;;23.40;60.90;;;;;;5052856;28;20568;-44
2023/05/28 12:59:28;;;;;;;4.20;3.00;;;23.40;60.60;;;;;;5059523;28;20205;-43
2023/05/28 13:02:03;;;;;;;3.50;2.67;;;23.40;60.50;;;;;;5072028;28;20612;-43
2023/05/28 13:04:34;;;;;;;3.63;2.93;;;23.40;60.70;;;;;;5068038;28;20212;-43
2023/05/28 13:07:08;;;;;;;2.83;2.43;;;23.50;60.60;;;;;;5068920;28;20202;-44
2023/05/28 13:09:39;;;;;;;3.80;2.70;;;23.50;61.00;;;;;;5061470;28;20692;-43
2023/05/28 13:12:11;;;;;;;4.27;3.10;;;23.50;60.70;;;;;;5052388;28;20190;-44
2023/05/28 13:14:54;;;;;;;12.57;2.77;;;23.50;60.60;;;;;;5061785;28;20212;-43